createdAt,value
2023-05-13T00:04:22.390Z,8.82
2023-05-13T00:09:24.665Z,8.98
2023-05-13T00:14:27.040Z,8.97
2023-05-13T00:19:29.432Z,8.77
2023-05-13T00:24:31.772Z,8.87
2023-05-13T00:29:34.132Z,8.84
2023-05-13T00:34:36.562Z,8.73
2023-05-13T00:39:38.959Z,8.64
2023-05-13T00:44:41.338Z,8.59
2023-05-13T00:49:44.232Z,8.70
2023-05-13T00:54:46.834Z,8.74
2023-05-13T00:59:49.206Z,8.74
2023-05-13T01:04:51.859Z,8.70
2023-05-13T01:09:55.203Z,8.62
2023-05-13T01:14:57.526Z,8.77
2023-05-13T01:19:59.855Z,8.72
2023-05-13T01:25:02.186Z,8.66
2023-05-13T01:30:05.088Z,8.56
2023-05-13T01:35:07.374Z,8.54
2023-05-13T01:40:24.352Z,8.52
2023-05-13T01:45:33.173Z,8.49
2023-05-13T01:50:35.497Z,8.43
2023-05-13T01:55:37.788Z,8.39
2023-05-13T02:00:40.099Z,8.29
2023-05-13T02:05:42.417Z,8.31
2023-05-13T02:10:44.722Z,8.35
2023-05-13T02:15:47.046Z,8.29
2023-05-13T02:20:49.507Z,8.27
2023-05-13T02:25:51.814Z,8.34
2023-05-13T02:30:54.076Z,8.44
2023-05-13T02:35:56.375Z,8.30
2023-05-13T02:40:58.756Z,8.30
2023-05-13T02:46:04.093Z,8.32
2023-05-13T02:51:06.452Z,8.34
2023-05-13T02:56:08.743Z,8.43
2023-05-13T03:01:13.226Z,8.37
2023-05-13T03:06:15.531Z,8.24
2023-05-13T03:11:17.852Z,8.34
2023-05-13T03:16:20.186Z,8.29
2023-05-13T03:21:22.497Z,8.45
2023-05-13T03:26:24.761Z,8.42
2023-05-13T03:31:27.420Z,8.32
2023-05-13T03:36:30.085Z,8.38
2023-05-13T03:41:32.421Z,8.40
2023-05-13T03:46:34.982Z,8.24
2023-05-13T03:51:37.315Z,8.30
2023-05-13T03:56:39.636Z,8.31
2023-05-13T04:01:42.007Z,8.35
2023-05-13T04:06:44.642Z,8.30
2023-05-13T04:11:46.961Z,8.23
2023-05-13T04:16:49.297Z,8.15
2023-05-13T04:21:51.654Z,8.21
2023-05-13T04:26:53.945Z,8.16
2023-05-13T04:31:56.301Z,8.22
2023-05-13T04:36:58.673Z,8.12
2023-05-13T04:42:01.266Z,8.02
2023-05-13T04:47:03.541Z,7.99
2023-05-13T04:52:05.840Z,8.05
2023-05-13T04:57:08.119Z,8.09
2023-05-13T05:02:10.597Z,8.09
2023-05-13T05:07:12.884Z,8.12
2023-05-13T05:12:15.671Z,8.15
2023-05-13T05:17:18.487Z,8.17
2023-05-13T05:22:21.361Z,8.11
2023-05-13T05:27:24.334Z,8.14
2023-05-13T05:32:27.098Z,8.23
2023-05-13T05:37:29.734Z,8.26
2023-05-13T05:42:32.381Z,8.28
2023-05-13T05:47:35.088Z,8.32
2023-05-13T05:52:37.772Z,8.44
2023-05-13T05:57:40.133Z,8.56
2023-05-13T06:02:42.888Z,8.54
2023-05-13T06:07:45.650Z,8.33
2023-05-13T06:12:48.322Z,8.35
2023-05-13T06:17:50.898Z,8.37
2023-05-13T06:22:53.200Z,8.48
2023-05-13T06:27:55.540Z,8.54
2023-05-13T06:33:02.124Z,8.70
2023-05-13T06:38:05.214Z,8.85
2023-05-13T06:43:07.772Z,8.85
2023-05-13T06:48:10.513Z,9.15
2023-05-13T06:53:14.331Z,8.94
2023-05-13T06:58:17.832Z,9.16
2023-05-13T07:03:20.888Z,8.99
2023-05-13T07:08:23.897Z,8.90
2023-05-13T07:13:27.127Z,9.23
2023-05-13T07:18:29.868Z,9.06
2023-05-13T07:23:32.842Z,8.98
2023-05-13T07:28:35.349Z,8.94
2023-05-13T07:33:37.901Z,9.28
2023-05-13T07:38:40.815Z,9.42
2023-05-13T07:43:43.482Z,9.80
2023-05-13T07:48:46.410Z,9.75
2023-05-13T07:53:48.953Z,9.44
2023-05-13T07:58:51.386Z,9.33
2023-05-13T08:03:53.969Z,9.27
2023-05-13T08:08:56.404Z,9.11
2023-05-13T08:13:58.706Z,9.27
2023-05-13T08:19:01.371Z,9.30
2023-05-13T08:24:04.097Z,9.25
2023-05-13T08:29:06.928Z,9.08
2023-05-13T08:34:09.622Z,9.01
2023-05-13T08:39:12.274Z,8.90
2023-05-13T08:44:14.982Z,9.14
2023-05-13T08:49:17.681Z,9.44
2023-05-13T08:54:21.146Z,9.61
2023-05-13T08:59:25.964Z,9.66
2023-05-13T09:04:28.628Z,9.64
2023-05-13T09:09:31.023Z,9.64
2023-05-13T09:14:33.376Z,10.05
2023-05-13T09:19:36.329Z,9.98
2023-05-13T09:24:39.453Z,9.88
2023-05-13T09:29:41.791Z,9.87
2023-05-13T09:34:44.592Z,10.16
2023-05-13T09:39:47.655Z,10.14
2023-05-13T09:44:50.393Z,10.43
2023-05-13T09:49:52.809Z,10.34
2023-05-13T09:54:55.164Z,10.39
2023-05-13T09:59:57.467Z,10.50
2023-05-13T10:04:59.768Z,10.74
2023-05-13T10:10:02.309Z,11.45
2023-05-13T10:15:04.592Z,11.23
2023-05-13T10:20:06.977Z,11.43
2023-05-13T10:25:09.358Z,11.80
2023-05-13T10:30:11.706Z,11.96
2023-05-13T10:35:14.064Z,11.93
2023-05-13T10:40:16.748Z,11.41
2023-05-13T10:45:19.084Z,11.49
2023-05-13T10:50:21.601Z,11.53
2023-05-13T10:55:24.182Z,12.02
2023-05-13T11:00:26.512Z,12.35
2023-05-13T11:05:28.802Z,12.04
2023-05-13T11:10:31.625Z,11.66
2023-05-13T11:15:33.941Z,11.44
2023-05-13T11:20:49.030Z,11.60
2023-05-13T11:25:54.695Z,11.82
2023-05-13T11:30:57.029Z,12.45
2023-05-13T11:35:59.313Z,12.51
2023-05-13T11:41:01.595Z,12.08
2023-05-13T11:46:03.911Z,11.70
2023-05-13T11:51:06.348Z,11.60
2023-05-13T11:56:08.682Z,11.93
2023-05-13T12:01:11.086Z,12.07
2023-05-13T12:06:13.519Z,12.37
2023-05-13T12:11:15.872Z,12.67
2023-05-13T12:16:18.219Z,13.21
2023-05-13T12:21:20.595Z,13.65
2023-05-13T12:26:22.920Z,14.26
2023-05-13T12:31:25.314Z,14.07
2023-05-13T12:36:33.631Z,13.58
2023-05-13T12:41:36.233Z,13.66
2023-05-13T12:46:39.746Z,14.65
2023-05-13T12:51:42.192Z,14.39
2023-05-13T12:56:44.617Z,13.98
2023-05-13T13:01:48.093Z,13.30
2023-05-13T13:06:50.931Z,13.40
2023-05-13T13:11:53.286Z,13.61
2023-05-13T13:16:55.687Z,14.59
2023-05-13T13:21:57.992Z,15.22
2023-05-13T13:27:00.486Z,15.51
2023-05-13T13:32:02.889Z,15.72
2023-05-13T13:37:05.229Z,15.91
2023-05-13T13:42:07.756Z,15.88
2023-05-13T13:47:10.135Z,16.21
2023-05-13T13:52:12.524Z,16.91
2023-05-13T13:57:26.135Z,17.06
2023-05-13T14:02:29.890Z,16.45
2023-05-13T14:07:33.323Z,16.41
2023-05-13T14:12:37.853Z,15.18
2023-05-13T14:17:51.353Z,14.49
2023-05-13T14:22:57.085Z,14.39
2023-05-13T14:28:23.217Z,14.66
2023-05-13T14:33:28.860Z,14.60
2023-05-13T14:38:34.221Z,15.12
2023-05-13T14:43:38.321Z,15.65
2023-05-13T14:48:42.271Z,16.01
2023-05-13T14:53:53.591Z,16.31
2023-05-13T14:58:58.111Z,15.59
2023-05-13T15:04:07.607Z,14.73
2023-05-13T15:09:14.054Z,14.50
2023-05-13T15:14:24.562Z,14.81
2023-05-13T15:19:35.201Z,14.90
2023-05-13T15:25:12.757Z,15.13
2023-05-13T15:30:24.734Z,14.59
2023-05-13T15:35:31.539Z,14.59
2023-05-13T15:40:34.749Z,14.38
2023-05-13T15:45:40.315Z,14.56
2023-05-13T15:51:00.191Z,14.43
2023-05-13T15:56:08.234Z,15.09
2023-05-13T16:01:13.227Z,15.22
2023-05-13T16:06:17.472Z,15.67
2023-05-13T16:11:23.440Z,15.58
2023-05-13T16:16:39.594Z,15.47
2023-05-13T16:21:43.317Z,15.53
2023-05-13T16:26:47.934Z,15.26
2023-05-13T16:31:58.060Z,15.49
2023-05-13T16:37:02.523Z,15.77
2023-05-13T16:42:06.702Z,15.71
2023-05-13T16:47:14.626Z,15.44
2023-05-13T16:52:23.132Z,14.82
2023-05-13T16:57:26.035Z,14.38
2023-05-13T17:02:29.701Z,13.99
2023-05-13T17:07:34.712Z,13.89
2023-05-13T17:12:39.194Z,13.71
2023-05-13T17:17:48.911Z,13.62
2023-05-13T17:22:54.864Z,13.78
2023-05-13T17:27:59.591Z,13.69
2023-05-13T17:33:04.939Z,13.53
2023-05-13T17:38:18.458Z,13.34
2023-05-13T17:43:21.107Z,13.32
2023-05-13T17:48:28.685Z,13.29
2023-05-13T17:53:38.471Z,13.22
2023-05-13T17:58:44.036Z,13.22
2023-05-13T18:03:58.258Z,13.07
2023-05-13T18:09:02.771Z,12.97
2023-05-13T18:14:14.089Z,12.97
2023-05-13T18:19:30.160Z,12.86
2023-05-13T18:24:35.210Z,12.76
2023-05-13T18:29:42.820Z,12.59
2023-05-13T18:34:46.225Z,12.57
2023-05-13T18:39:53.429Z,12.52
2023-05-13T18:44:57.456Z,12.51
2023-05-13T18:50:01.380Z,12.49
2023-05-13T18:55:07.057Z,12.41
2023-05-13T19:00:17.825Z,12.28
2023-05-13T19:05:22.074Z,12.39
2023-05-13T19:10:40.689Z,12.23
2023-05-13T19:15:46.821Z,12.18
2023-05-13T19:21:05.829Z,12.17
2023-05-13T19:26:11.414Z,12.25
2023-05-13T19:31:16.825Z,12.23
2023-05-13T19:36:23.850Z,12.23
2023-05-13T19:41:31.616Z,12.18
2023-05-13T19:46:37.942Z,12.12
2023-05-13T19:51:45.323Z,12.10
2023-05-13T19:56:51.921Z,12.00
2023-05-13T20:02:04.060Z,11.85
2023-05-13T20:07:16.962Z,11.66
2023-05-13T20:12:22.611Z,11.56
2023-05-13T20:17:28.837Z,11.49
2023-05-13T20:22:55.327Z,11.41
2023-05-13T20:28:01.441Z,11.42
2023-05-13T20:33:04.651Z,11.41
2023-05-13T20:38:12.603Z,11.28
2023-05-13T20:43:17.059Z,11.09
2023-05-13T20:48:22.247Z,10.93
2023-05-13T20:53:26.687Z,10.77
2023-05-13T20:58:30.021Z,10.77
2023-05-13T21:03:33.505Z,10.81
2023-05-13T21:08:41.280Z,10.73
2023-05-13T21:13:50.230Z,10.76
2023-05-13T21:19:02.270Z,10.67
2023-05-13T21:24:14.096Z,10.77
2023-05-13T21:29:18.991Z,10.85
2023-05-13T21:34:47.506Z,10.86
2023-05-13T21:39:52.132Z,10.89
2023-05-13T21:45:04.363Z,10.82
2023-05-13T21:50:09.688Z,10.80
2023-05-13T21:55:18.467Z,10.71
2023-05-13T22:00:24.659Z,10.79
2023-05-13T22:05:49.916Z,10.80
2023-05-13T22:11:06.805Z,10.91
2023-05-13T22:16:11.346Z,10.86
2023-05-13T22:21:15.830Z,10.99
2023-05-13T22:26:19.417Z,10.95
2023-05-13T22:31:23.298Z,10.85
2023-05-13T22:36:33.525Z,10.80
2023-05-13T22:41:36.750Z,10.52
2023-05-13T22:46:42.965Z,10.55
2023-05-13T22:51:49.718Z,10.53
2023-05-13T22:56:58.018Z,10.50
2023-05-13T23:02:01.539Z,10.47
2023-05-13T23:07:05.271Z,10.51
2023-05-13T23:12:11.319Z,10.56
2023-05-13T23:17:15.543Z,10.42
2023-05-13T23:22:21.777Z,10.32
2023-05-13T23:27:25.206Z,10.36
2023-05-13T23:32:39.032Z,10.27
2023-05-13T23:37:43.573Z,10.17
2023-05-13T23:42:51.765Z,10.16
2023-05-13T23:47:56.395Z,10.07
2023-05-13T23:52:59.847Z,10.00
2023-05-13T23:58:03.069Z,9.95
